Time;durP1;ratioP1;P1;durP2;ratioP2;P2;SDS_P1;SDS_P2;PMS_P1;PMS_P2;Temp;Humidity;BMP_temperature;BMP_pressure;BME280_temperature;BME280_humidity;BME280_pressure;Samples;Min_cycle;Max_cycle;Signal;HPM_P1;HPM_P2
2022/10/05 00:01:19;;;;;;;;;;;;;;;16.58;57.77;101657.00;4917974;29;1222;-50
2022/10/05 00:03:44;;;;;;;;;;;;;;;16.32;57.55;101661.25;4938388;29;1922;-47
2022/10/05 00:06:10;;;;;;;;;;;;;;;16.18;57.43;101656.09;4940792;29;1178;-49
2022/10/05 00:08:35;;;;;;;;;;;;;;;16.14;57.69;101659.59;4938526;29;2286;-50
2022/10/05 00:11:01;;;;;;;;;;;;;;;17.55;55.88;101662.09;4923258;29;1073;-51
2022/10/05 00:13:27;;;;;;;;;;;;;;;16.81;57.34;101666.09;4940521;29;1198;-51
2022/10/05 00:16:12;;;;;;;;;;;;;;;16.43;57.77;101665.84;4927138;29;1281;-51
2022/10/05 00:18:38;;;;;;;;;;;;;;;16.21;57.25;101669.31;4940349;29;1166;-50
2022/10/05 00:21:23;;;;;;;;;;;;;;;16.07;57.46;101668.84;4926523;29;1111;-50
2022/10/05 00:23:49;;;;;;;;;;;;;;;16.58;57.59;101668.00;4939676;29;1918;-46
2022/10/05 00:26:18;;;;;;;;;;;;;;;17.72;55.58;101673.00;4936400;29;1197;-47
2022/10/05 00:28:44;;;;;;;;;;;;;;;16.79;57.46;101671.00;4914480;29;1337;-49
2022/10/05 00:31:12;;;;;;;;;;;;;;;16.41;57.72;101674.31;4923021;29;1201;-51
2022/10/05 00:33:37;;;;;;;;;;;;;;;16.28;57.26;101673.81;4923121;29;1264;-50
2022/10/05 00:36:05;;;;;;;;;;;;;;;17.33;56.83;101675.88;4940126;29;1107;-50
2022/10/05 00:38:30;;;;;;;;;;;;;;;17.05;57.13;101677.72;4909969;29;2405;-51
2022/10/05 00:41:05;;;;;;;;;;;;;;;16.59;57.59;101692.44;4910797;29;1095;-48
2022/10/05 00:43:43;;;;;;;;;;;;;;;16.40;57.51;101683.63;4909982;29;2047;-51
2022/10/05 00:46:08;;;;;;;;;;;;;;;16.19;57.26;101693.44;4940083;29;1115;-47
2022/10/05 00:48:37;;;;;;;;;;;;;;;16.07;57.10;101695.41;4926702;29;1020;-51
2022/10/05 00:51:06;;;;;;;;;;;;;;;16.21;57.58;101688.53;4912746;29;901;-51
2022/10/05 00:53:31;;;;;;;;;;;;;;;17.72;55.72;101689.50;4939082;29;1171;-52
2022/10/05 00:56:00;;;;;;;;;;;;;;;16.84;57.41;101693.06;4922776;29;1122;-50
2022/10/05 00:58:44;;;;;;;;;;;;;;;16.47;57.56;101682.66;4939833;29;1123;-51
2022/10/05 01:01:10;;;;;;;;;;;;;;;16.24;57.66;101684.44;4914926;29;1214;-51
2022/10/05 01:03:39;;;;;;;;;;;;;;;16.08;57.58;101686.13;4932830;29;1981;-50
2022/10/05 01:06:10;;;;;;;;;;;;;;;17.30;56.69;101687.38;4909562;29;1465;-51
2022/10/05 01:08:45;;;;;;;;;;;;;;;16.84;57.41;101704.88;4939377;29;1835;-50
2022/10/05 01:11:27;;;;;;;;;;;;;;;16.42;57.64;101703.44;4909241;29;1134;-48
2022/10/05 01:13:55;;;;;;;;;;;;;;;16.22;57.56;101697.59;4938875;29;1178;-48
2022/10/05 01:16:21;;;;;;;;;;;;;;;16.95;57.53;101705.88;4926730;29;1146;-53
2022/10/05 01:18:59;;;;;;;;;;;;;;;17.07;56.94;101701.13;4922460;29;1176;-53
2022/10/05 01:21:25;;;;;;;;;;;;;;;16.51;57.88;101698.34;4926590;29;1163;-52
2022/10/05 01:23:50;;;;;;;;;;;;;;;16.32;57.43;101699.69;4922361;29;1981;-52
2022/10/05 01:26:35;;;;;;;;;;;;;;;16.15;57.56;101702.44;4918715;29;1174;-51
2022/10/05 01:29:19;;;;;;;;;;;;;;;16.51;57.61;101703.00;4932737;29;1447;-52
2022/10/05 01:31:47;;;;;;;;;;;;;;;17.40;56.24;101701.25;4927516;29;1182;-52
2022/10/05 01:34:19;;;;;;;;;;;;;;;16.64;57.84;101699.09;4922208;29;1092;-49
2022/10/05 01:36:44;;;;;;;;;;;;;;;16.35;57.86;101710.97;4926534;29;1155;-52
2022/10/05 01:39:13;;;;;;;;;;;;;;;16.19;57.55;101714.56;4929861;29;2558;-52
2022/10/05 01:42:02;;;;;;;;;;;;;;;16.07;57.30;101711.88;4925468;29;1138;-52
2022/10/05 01:44:32;;;;;;;;;;;;;;;15.99;57.35;101715.88;4930387;29;1918;-50
2022/10/05 01:47:01;;;;;;;;;;;;;;;17.31;56.73;101722.03;4921874;29;1112;-53
2022/10/05 01:49:31;;;;;;;;;;;;;;;17.00;57.18;101713.34;4907005;29;1117;-48
2022/10/05 01:52:04;;;;;;;;;;;;;;;16.46;57.75;101727.63;4933114;29;1273;-52
2022/10/05 01:54:43;;;;;;;;;;;;;;;16.25;57.64;101722.63;4899642;29;1309;-50
2022/10/05 01:57:19;;;;;;;;;;;;;;;16.09;57.68;101723.47;4909583;29;1085;-51
2022/10/05 01:59:50;;;;;;;;;;;;;;;16.01;57.11;101729.34;4906629;29;1449;-52
2022/10/05 02:02:16;;;;;;;;;;;;;;;16.20;57.65;101732.69;4909267;29;1902;-51
2022/10/05 02:04:43;;;;;;;;;;;;;;;17.37;56.33;101735.56;4922001;29;1175;-52
2022/10/05 02:07:14;;;;;;;;;;;;;;;16.57;57.69;101726.72;4892965;29;1159;-50
2022/10/05 02:09:42;;;;;;;;;;;;;;;16.21;57.96;101728.88;4921540;29;2587;-49
2022/10/05 02:12:11;;;;;;;;;;;;;;;16.05;57.55;101728.59;4939253;29;1151;-50
2022/10/05 02:14:42;;;;;;;;;;;;;;;16.13;57.95;101732.00;4939360;29;1107;-53
2022/10/05 02:17:12;;;;;;;;;;;;;;;17.51;56.05;101732.44;4919616;29;1146;-53
2022/10/05 02:19:43;;;;;;;;;;;;;;;16.62;57.59;101732.31;4942968;29;1195;-52
2022/10/05 02:22:27;;;;;;;;;;;;;;;16.23;57.81;101738.53;4925426;29;1914;-49
2022/10/05 02:24:54;;;;;;;;;;;;;;;16.63;57.85;101746.84;4894305;29;1170;-50
2022/10/05 02:27:21;;;;;;;;;;;;;;;17.35;56.22;101746.00;4910003;29;1343;-52
2022/10/05 02:29:47;;;;;;;;;;;;;;;16.66;57.59;101758.19;4925794;29;1158;-49
2022/10/05 02:32:17;;;;;;;;;;;;;;;16.33;57.57;101750.75;4925502;29;1229;-49
2022/10/05 02:34:42;;;;;;;;;;;;;;;16.16;57.57;101748.81;4942275;29;1143;-51
2022/10/05 02:37:28;;;;;;;;;;;;;;;17.03;57.32;101752.16;4914635;29;2341;-52
2022/10/05 02:40:03;;;;;;;;;;;;;;;17.02;56.96;101760.66;4929749;29;1275;-52
2022/10/05 02:42:45;;;;;;;;;;;;;;;16.53;57.45;101758.50;4917726;29;1956;-52
2022/10/05 02:45:30;;;;;;;;;;;;;;;16.26;57.44;101770.13;4928952;29;1095;-50
2022/10/05 02:48:22;;;;;;;;;;;;;;;16.12;57.34;101764.13;4924832;29;1285;-50
2022/10/05 02:51:06;;;;;;;;;;;;;;;16.04;57.19;101772.75;4904081;29;1143;-50
2022/10/05 02:53:50;;;;;;;;;;;;;;;17.41;56.30;101768.91;4912943;29;1170;-51
2022/10/05 02:56:35;;;;;;;;;;;;;;;16.69;57.66;101768.66;4942303;29;1189;-47
2022/10/05 02:59:09;;;;;;;;;;;;;;;16.29;57.59;101772.38;4913741;29;1123;-51
2022/10/05 03:01:45;;;;;;;;;;;;;;;16.13;57.67;101782.25;4914964;29;1267;-49
2022/10/05 03:04:20;;;;;;;;;;;;;;;17.06;56.95;101781.88;4930338;29;1999;-49
2022/10/05 03:06:52;;;;;;;;;;;;;;;17.07;56.90;101777.25;4916744;29;1146;-49
2022/10/05 03:09:17;;;;;;;;;;;;;;;16.53;57.45;101780.47;4924798;29;2342;-50
2022/10/05 03:11:50;;;;;;;;;;;;;;;16.31;57.59;101783.91;4924666;29;1151;-46
2022/10/05 03:14:22;;;;;;;;;;;;;;;16.13;57.39;101793.22;4941373;29;1111;-54
2022/10/05 03:16:51;;;;;;;;;;;;;;;17.65;55.68;101794.22;4924380;29;951;-55
2022/10/05 03:19:21;;;;;;;;;;;;;;;16.88;57.12;101798.63;4911410;29;1379;-51
2022/10/05 03:21:55;;;;;;;;;;;;;;;16.47;57.46;101792.47;4909007;29;1159;-52
2022/10/05 03:24:26;;;;;;;;;;;;;;;16.28;57.58;101800.06;4924380;29;1918;-53
2022/10/05 03:26:58;;;;;;;;;;;;;;;16.12;57.46;101797.03;4907661;29;1147;-52
2022/10/05 03:29:42;;;;;;;;;;;;;;;16.13;57.79;101804.19;4928212;29;1130;-51
2022/10/05 03:32:26;;;;;;;;;;;;;;;17.66;55.67;101806.88;4924121;29;1500;-53
2022/10/05 03:35:05;;;;;;;;;;;;;;;16.70;57.28;101811.50;4924212;29;1209;-51
2022/10/05 03:37:44;;;;;;;;;;;;;;;16.38;57.50;101816.72;4908004;29;1858;-49
2022/10/05 03:40:09;;;;;;;;;;;;;;;16.19;57.36;101819.66;4939345;29;1154;-52
2022/10/05 03:42:35;;;;;;;;;;;;;;;16.86;57.22;101820.03;4912268;29;1890;-57
2022/10/05 03:45:08;;;;;;;;;;;;;;;17.24;56.50;101810.19;4924361;29;1481;-55
2022/10/05 03:47:52;;;;;;;;;;;;;;;16.58;57.44;101827.25;4923718;29;1126;-56
2022/10/05 03:50:23;;;;;;;;;;;;;;;16.32;57.40;101823.19;4940817;29;1336;-54
2022/10/05 03:52:49;;;;;;;;;;;;;;;16.11;57.48;101825.56;4924411;29;1473;-53
2022/10/05 03:55:21;;;;;;;;;;;;;;;16.36;57.64;101825.19;4918404;29;1140;-53
2022/10/05 03:57:47;;;;;;;;;;;;;;;17.47;55.99;101833.03;4923392;29;1140;-52
2022/10/05 04:00:17;;;;;;;;;;;;;;;16.60;57.86;101830.56;4940904;29;1130;-48
2022/10/05 04:03:08;;;;;;;;;;;;;;;16.32;57.87;101837.75;4897240;29;1906;-54
2022/10/05 04:05:44;;;;;;;;;;;;;;;16.13;57.56;101830.78;4907726;29;1175;-52
2022/10/05 04:08:10;;;;;;;;;;;;;;;16.01;57.44;101837.16;4921897;29;1838;-55
2022/10/05 04:10:39;;;;;;;;;;;;;;;17.27;56.62;101835.22;4910112;29;1481;-55
2022/10/05 04:13:06;;;;;;;;;;;;;;;16.91;57.33;101842.09;4912320;29;1290;-54
2022/10/05 04:16:07;;;;;;;;;;;;;;;16.48;57.78;101849.00;4923539;29;1155;-58
2022/10/05 04:18:33;;;;;;;;;;;;;;;16.20;57.84;101853.44;4863144;29;1298;-56
2022/10/05 04:21:04;;;;;;;;;;;;;;;16.37;58.34;101862.56;4896828;29;1589;-55
2022/10/05 04:23:30;;;;;;;;;;;;;;;17.44;55.98;101867.38;4923602;29;1975;-56
2022/10/05 04:25:56;;;;;;;;;;;;;;;16.64;57.58;101869.34;4945415;29;1211;-54
2022/10/05 04:28:34;;;;;;;;;;;;;;;16.32;57.93;101870.69;4900367;29;1228;-61
2022/10/05 04:31:01;;;;;;;;;;;;;;;16.13;57.74;101875.53;4918753;29;1198;-60
2022/10/05 04:33:27;;;;;;;;;;;;;;;16.82;57.56;101882.03;4928027;29;1114;-61
2022/10/05 04:36:28;;;;;;;;;;;;;;;17.07;57.14;101887.97;4934259;29;1140;-58
2022/10/05 04:38:57;;;;;;;;;;;;;;;16.42;58.08;101886.50;4839563;29;1854;-60
2022/10/05 04:41:35;;;;;;;;;;;;;;;16.19;58.04;101885.53;4910665;29;1147;-57
2022/10/05 04:44:00;;;;;;;;;;;;;;;16.04;57.87;101887.97;4926094;29;1906;-59
2022/10/05 04:46:26;;;;;;;;;;;;;;;16.90;57.48;101896.22;4926580;29;1145;-59
2022/10/05 04:49:04;;;;;;;;;;;;;;;17.07;57.02;101889.91;4922138;29;1489;-60
2022/10/05 04:51:51;;;;;;;;;;;;;;;16.42;58.09;101890.13;4922708;29;1224;-58
2022/10/05 04:54:28;;;;;;;;;;;;;;;16.18;57.87;101899.50;4911100;29;1123;-58
2022/10/05 04:57:05;;;;;;;;;;;;;;;16.24;58.24;101895.78;4922494;29;1115;-59
2022/10/05 05:00:12;;;;;;;;;;;;;;;17.62;55.87;101913.00;5090929;27;1322;-58
2022/10/05 05:02:56;;;;;;;;;;;;;;;16.58;57.79;101912.38;4989903;28;2462;-57
2022/10/05 05:05:38;;;;;;;;;;;;;;;16.30;57.74;101913.16;5063526;28;1915;-58
2022/10/05 05:08:22;;;;;;;;;;;;;;;16.14;57.72;101917.53;5060583;28;1746;-58
2022/10/05 05:10:59;;;;;;;;;;;;;;;16.25;58.00;101922.16;5062200;28;1946;-58
2022/10/05 05:13:37;;;;;;;;;;;;;;;17.60;55.75;101920.69;5065859;28;1999;-60
2022/10/05 05:16:07;;;;;;;;;;;;;;;16.65;57.63;101926.78;5068113;28;1127;-59
2022/10/05 05:18:32;;;;;;;;;;;;;;;16.33;57.86;101934.66;5071727;28;1905;-57
2022/10/05 05:20:58;;;;;;;;;;;;;;;16.18;57.66;101929.69;5062036;28;1182;-60
2022/10/05 05:23:26;;;;;;;;;;;;;;;15.99;57.78;101927.13;5060954;28;1387;-57
2022/10/05 05:26:07;;;;;;;;;;;;;;;15.99;57.60;101935.34;5071356;28;1213;-60
2022/10/05 05:28:41;;;;;;;;;;;;;;;17.48;56.16;101939.19;5070669;28;1426;-59
2022/10/05 05:31:23;;;;;;;;;;;;;;;16.58;57.87;101951.63;5069450;28;1241;-56
2022/10/05 05:33:57;;;;;;;;;;;;;;;16.26;57.89;101945.78;5078088;28;1583;-56
2022/10/05 05:36:36;;;;;;;;;;;;;;;16.06;57.73;101948.91;5053996;28;1404;-58
2022/10/05 05:39:02;;;;;;;;;;;;;;;17.37;55.65;101939.03;5068567;28;2750;-58
2022/10/05 05:41:31;;;;;;;;;;;;;;;16.57;55.02;101960.13;5072247;28;1115;-58
2022/10/05 05:44:02;;;;;;;;;;;;;;;18.01;53.98;101968.06;5071359;28;1358;-58
2022/10/05 05:46:43;;;;;;;;;;;;;;;17.81;53.62;101970.47;5070389;28;1118;-50
2022/10/05 05:49:36;;;;;;;;;;;;;;;16.97;52.89;101973.00;5071273;28;1130;-58
2022/10/05 05:52:08;;;;;;;;;;;;;;;17.50;54.43;101959.88;5037860;28;1070;-57
2022/10/05 05:54:44;;;;;;;;;;;;;;;16.90;53.92;101975.03;5048227;28;1294;-58
2022/10/05 05:57:21;;;;;;;;;;;;;;;16.88;53.03;101979.94;5058315;28;1982;-51
2022/10/05 06:00:02;;;;;;;;;;;;;;;17.50;54.26;101984.63;5058009;28;1415;-56
2022/10/05 06:02:46;;;;;;;;;;;;;;;16.93;52.54;101978.13;5092618;28;1094;-57
2022/10/05 06:05:32;;;;;;;;;;;;;;;17.06;53.00;101979.75;5073407;28;1297;-57
2022/10/05 06:08:02;;;;;;;;;;;;;;;17.06;53.20;101978.91;5038235;28;1107;-54
2022/10/05 06:10:33;;;;;;;;;;;;;;;16.79;51.49;101989.63;5041755;28;2540;-56
2022/10/05 06:13:05;;;;;;;;;;;;;;;17.37;52.58;101988.50;5059348;28;1579;-53
2022/10/05 06:15:40;;;;;;;;;;;;;;;17.57;53.16;101987.19;5059948;28;1146;-56
2022/10/05 06:18:10;;;;;;;;;;;;;;;18.97;52.26;101993.44;5040873;28;1909;-57
2022/10/05 06:20:39;;;;;;;;;;;;;;;14.86;62.26;101995.59;5065276;28;1107;-56
2022/10/05 06:23:08;;;;;;;;;;;;;;;16.42;54.11;101988.09;5064986;28;1107;-55
2022/10/05 06:25:48;;;;;;;;;;;;;;;17.27;53.99;101997.41;5051431;28;1154;-57
2022/10/05 06:28:17;;;;;;;;;;;;;;;16.96;53.20;101995.19;5065215;28;1127;-57
2022/10/05 06:30:49;;;;;;;;;;;;;;;17.10;52.96;102000.16;5060091;28;1230;-58
2022/10/05 06:33:29;;;;;;;;;;;;;;;17.65;53.93;101995.00;5060189;28;2182;-57
2022/10/05 06:36:27;;;;;;;;;;;;;;;17.00;52.62;102002.72;5077284;28;1178;-60
2022/10/05 06:39:11;;;;;;;;;;;;;;;16.77;51.15;102007.22;5018765;28;2492;-58
2022/10/05 06:41:49;;;;;;;;;;;;;;;17.50;53.11;102011.28;5063027;28;1223;-58
2022/10/05 06:44:16;;;;;;;;;;;;;;;16.99;51.75;101997.47;5060238;28;1172;-57
2022/10/05 06:46:48;;;;;;;;;;;;;;;18.33;53.18;102000.41;5048280;28;1234;-59
2022/10/05 06:49:43;;;;;;;;;;;;;;;17.42;52.71;101996.84;5060087;28;1119;-56
2022/10/05 06:52:33;;;;;;;;;;;;;;;16.97;51.20;101997.72;5080346;28;1166;-57
2022/10/05 06:55:14;;;;;;;;;;;;;;;16.86;49.89;101998.59;5062396;28;1242;-57
2022/10/05 06:57:43;;;;;;;;;;;;;;;17.97;52.43;102008.19;5069671;28;1975;-56
2022/10/05 07:00:12;;;;;;;;;;;;;;;17.16;52.06;101998.31;5059838;28;1095;-58
2022/10/05 07:02:44;;;;;;;;;;;;;;;17.00;50.77;102010.13;5047287;28;1236;-56
2022/10/05 07:05:19;;;;;;;;;;;;;;;16.91;49.58;102012.44;5063327;28;1303;-56
2022/10/05 07:07:50;;;;;;;;;;;;;;;17.82;51.86;102007.94;5059848;28;1196;-57
2022/10/05 07:10:21;;;;;;;;;;;;;;;17.13;51.45;102014.50;5056603;28;2460;-56
2022/10/05 07:12:48;;;;;;;;;;;;;;;16.90;50.38;102019.00;5039250;28;1242;-56
2022/10/05 07:15:19;;;;;;;;;;;;;;;18.01;51.66;102020.34;5051389;28;1562;-57
2022/10/05 07:17:45;;;;;;;;;;;;;;;17.26;51.36;102017.78;5059416;28;1984;-57
2022/10/05 07:20:16;;;;;;;;;;;;;;;17.04;50.40;102020.38;5069284;28;1253;-58
2022/10/05 07:23:02;;;;;;;;;;;;;;;18.01;51.47;102023.09;5027877;28;1461;-56
2022/10/05 07:25:29;;;;;;;;;;;;;;;17.27;51.45;102015.84;5058876;28;1312;-56
2022/10/05 07:28:00;;;;;;;;;;;;;;;17.08;50.06;102024.31;5059160;28;1242;-56
2022/10/05 07:30:25;;;;;;;;;;;;;;;17.16;50.54;102016.75;5043132;28;1099;-58
2022/10/05 07:32:53;;;;;;;;;;;;;;;17.60;51.56;102020.53;5076018;28;1099;-60
2022/10/05 07:38:40;;;;;;;;;;;;;;;16.91;49.45;102017.94;5053750;28;1977;-56
2022/10/05 07:41:15;;;;;;;;;;;;;;;17.73;50.55;102019.34;5045278;28;1412;-56
2022/10/05 07:43:43;;;;;;;;;;;;;;;17.44;50.75;102016.66;5050270;28;1268;-55
2022/10/05 07:46:16;;;;;;;;;;;;;;;17.03;50.14;102018.72;5024311;28;1446;-59
2022/10/05 07:48:54;;;;;;;;;;;;;;;17.83;50.57;102017.84;5063794;28;1143;-56
2022/10/05 07:51:25;;;;;;;;;;;;;;;17.17;50.29;102012.91;5058373;28;1115;-52
2022/10/05 07:54:11;;;;;;;;;;;;;;;17.68;50.54;102022.00;5081746;28;1500;-57
2022/10/05 07:56:39;;;;;;;;;;;;;;;17.45;50.52;102023.84;5050898;28;1154;-54
2022/10/05 07:59:06;;;;;;;;;;;;;;;17.12;49.90;102021.06;5058536;28;1984;-59
2022/10/05 08:01:35;;;;;;;;;;;;;;;18.07;50.66;102024.00;5074353;28;1359;-58
2022/10/05 08:04:03;;;;;;;;;;;;;;;17.31;50.60;102017.00;5061827;28;1559;-58
2022/10/05 08:06:31;;;;;;;;;;;;;;;17.56;51.01;102018.53;5054306;28;1024;-56
2022/10/05 08:09:06;;;;;;;;;;;;;;;17.70;50.61;102022.59;5075182;28;2354;-57
2022/10/05 08:11:34;;;;;;;;;;;;;;;17.22;50.12;102013.84;5070100;28;1138;-59
2022/10/05 08:14:20;;;;;;;;;;;;;;;18.00;50.71;102023.38;5076424;28;1102;-58
2022/10/05 08:16:46;;;;;;;;;;;;;;;17.44;50.03;102022.16;5069999;28;1559;-59
2022/10/05 08:19:31;;;;;;;;;;;;;;;17.05;49.73;102013.78;5075729;28;1906;-56
2022/10/05 08:21:57;;;;;;;;;;;;;;;17.79;49.90;102020.25;5076495;28;1071;-54
2022/10/05 08:24:33;;;;;;;;;;;;;;;17.54;50.32;102009.69;5079637;28;1142;-52
2022/10/05 08:27:01;;;;;;;;;;;;;;;17.13;49.85;102009.81;5076674;28;1098;-56
2022/10/05 08:29:29;;;;;;;;;;;;;;;16.97;48.94;102011.47;5061992;28;1155;-56
2022/10/05 08:32:00;;;;;;;;;;;;;;;18.05;49.69;102015.19;5076561;28;1114;-55
2022/10/05 08:34:44;;;;;;;;;;;;;;;17.33;50.12;102011.25;5045962;28;1198;-52
2022/10/05 08:37:10;;;;;;;;;;;;;;;17.11;48.97;102012.00;5076323;28;1095;-55
2022/10/05 08:39:37;;;;;;;;;;;;;;;17.63;49.81;102002.69;5075523;28;1985;-55
2022/10/05 08:42:15;;;;;;;;;;;;;;;17.56;49.95;102004.78;5076325;28;1091;-55
2022/10/05 08:44:59;;;;;;;;;;;;;;;17.22;49.25;102004.75;5077286;28;1271;-56
2022/10/05 08:47:25;;;;;;;;;;;;;;;18.25;49.69;102009.94;5074387;28;1578;-56
2022/10/05 08:49:57;;;;;;;;;;;;;;;17.45;50.19;102001.84;5086558;28;1270;-56
2022/10/05 08:52:22;;;;;;;;;;;;;;;17.16;49.20;101992.00;5082099;28;1071;-56
2022/10/05 08:55:07;;;;;;;;;;;;;;;17.11;48.50;101995.50;5077310;28;1439;-53
2022/10/05 08:57:32;;;;;;;;;;;;;;;17.87;49.89;101997.00;5078467;28;1914;-56
2022/10/05 09:00:09;;;;;;;;;;;;;;;17.30;49.79;101998.84;5060363;28;1305;-58
2022/10/05 09:02:37;;;;;;;;;;;;;;;18.64;49.57;101995.28;5056519;28;1289;-57
2022/10/05 09:05:13;;;;;;;;;;;;;;;14.52;58.88;101997.88;5071672;28;1348;-58
2022/10/05 09:07:57;;;;;;;;;;;;;;;17.66;52.75;101995.88;5075585;28;1173;-58
2022/10/05 09:10:28;;;;;;;;;;;;;;;15.85;57.25;101992.38;5072027;28;2465;-57
2022/10/05 09:13:00;;;;;;;;;;;;;;;15.78;54.84;101988.88;5075653;28;1102;-58
2022/10/05 09:15:44;;;;;;;;;;;;;;;17.60;53.37;101989.44;5074894;28;1261;-58
2022/10/05 09:18:21;;;;;;;;;;;;;;;17.05;52.21;101997.31;5075139;28;1913;-58
2022/10/05 09:20:47;;;;;;;;;;;;;;;16.98;50.95;102001.28;5075064;28;1135;-58
2022/10/05 09:23:31;;;;;;;;;;;;;;;17.62;51.83;102001.03;5075284;28;1294;-59
2022/10/05 09:26:26;;;;;;;;;;;;;;;17.17;50.73;101999.19;5067477;28;1199;-59
2022/10/05 09:29:01;;;;;;;;;;;;;;;17.77;51.21;102004.00;4998156;28;1208;-59
2022/10/05 09:31:32;;;;;;;;;;;;;;;17.42;51.12;102002.34;5038263;28;1065;-59
2022/10/05 09:34:16;;;;;;;;;;;;;;;17.16;50.19;101997.50;5038054;28;1171;-58
2022/10/05 09:36:50;;;;;;;;;;;;;;;17.24;50.09;102006.16;5058653;28;1100;-59
2022/10/05 09:39:28;;;;;;;;;;;;;;;17.44;50.42;102016.66;5066812;28;2355;-55
2022/10/05 09:41:54;;;;;;;;;;;;;;;17.19;49.45;102008.00;5075829;28;1167;-57
2022/10/05 09:44:39;;;;;;;;;;;;;;;18.09;50.36;102006.16;5076049;28;1170;-61
2022/10/05 09:47:13;;;;;;;;;;;;;;;17.39;50.14;102008.34;5078749;28;1162;-57
2022/10/05 09:49:51;;;;;;;;;;;;;;;17.10;49.39;102005.66;5073037;28;1110;-59
2022/10/05 09:52:24;;;;;;;;;;;;;;;17.94;50.07;102003.19;5047790;28;1182;-60
2022/10/05 09:55:01;;;;;;;;;;;;;;;17.33;49.93;102001.09;5078922;28;1217;-60
2022/10/05 09:57:27;;;;;;;;;;;;;;;17.23;49.10;101998.19;5059056;28;1976;-58
2022/10/05 09:59:55;;;;;;;;;;;;;;;17.33;49.37;101990.09;5071278;28;1204;-59
2022/10/05 10:02:26;;;;;;;;;;;;;;;17.57;49.85;101995.44;5078363;28;1154;-59
2022/10/05 10:05:06;;;;;;;;;;;;;;;17.26;49.49;101992.16;5078713;28;1138;-59
2022/10/05 10:07:35;;;;;;;;;;;;;;;17.09;48.60;101989.41;5077508;28;1162;-60
2022/10/05 10:10:13;;;;;;;;;;;;;;;17.43;48.79;101989.44;5075739;28;2586;-59
2022/10/05 10:12:46;;;;;;;;;;;;;;;17.50;49.32;101992.88;5077152;28;1249;-64
2022/10/05 10:15:18;;;;;;;;;;;;;;;17.11;48.82;101984.50;5078922;28;1154;-68
2022/10/05 10:17:46;;;;;;;;;;;;;;;17.00;48.13;101988.97;5078375;28;1906;-60
2022/10/05 10:20:15;;;;;;;;;;;;;;;16.86;48.11;101987.59;5079141;28;1107;-60
2022/10/05 10:22:49;;;;;;;;;;;;;;;17.79;48.96;101990.84;5052088;28;1099;-61
2022/10/05 10:25:33;;;;;;;;;;;;;;;17.53;49.83;101981.38;5059129;28;1202;-59
2022/10/05 10:27:59;;;;;;;;;;;;;;;17.25;49.18;101985.00;5077674;28;1138;-60
2022/10/05 10:30:28;;;;;;;;;;;;;;;17.08;48.39;101982.22;5078641;28;1197;-60
2022/10/05 10:33:10;;;;;;;;;;;;;;;17.89;49.49;101970.06;5077168;28;1123;-61
2022/10/05 10:35:49;;;;;;;;;;;;;;;17.23;49.64;101977.00;5073465;28;998;-60
2022/10/05 10:38:15;;;;;;;;;;;;;;;17.15;48.56;101973.84;5078044;28;1910;-61
2022/10/05 10:40:41;;;;;;;;;;;;;;;18.10;48.98;101977.56;5078424;28;1150;-62
2022/10/05 10:43:06;;;;;;;;;;;;;;;17.39;49.41;101967.13;5078543;28;1174;-60
2022/10/05 10:45:32;;;;;;;;;;;;;;;17.15;48.81;101962.84;5077993;28;1221;-61
2022/10/05 10:48:00;;;;;;;;;;;;;;;17.02;48.21;101970.31;5078014;28;893;-61
2022/10/05 10:50:44;;;;;;;;;;;;;;;18.07;48.93;101969.78;5065749;28;1194;-60
2022/10/05 10:53:15;;;;;;;;;;;;;;;17.39;49.40;101958.00;5067980;28;1167;-65
2022/10/05 10:55:46;;;;;;;;;;;;;;;18.58;49.22;101958.59;5064619;28;1142;-59
2022/10/05 10:58:28;;;;;;;;;;;;;;;14.59;58.81;101949.41;5048665;28;1914;-60
2022/10/05 11:01:02;;;;;;;;;;;;;;;17.55;52.44;101957.19;5076153;28;1518;-62
2022/10/05 11:03:31;;;;;;;;;;;;;;;16.36;55.65;101967.13;5071470;28;1024;-66
2022/10/05 11:06:16;;;;;;;;;;;;;;;15.81;55.77;101954.66;5072982;28;992;-64
2022/10/05 11:08:41;;;;;;;;;;;;;;;18.42;51.62;101960.31;5058092;28;1177;-60
2022/10/05 11:11:16;;;;;;;;;;;;;;;17.41;52.27;101948.44;5066701;28;1119;-62
2022/10/05 11:13:42;;;;;;;;;;;;;;;17.27;50.58;101949.88;5077576;28;1150;-60
2022/10/05 11:16:18;;;;;;;;;;;;;;;17.86;51.51;101940.31;5078000;28;1210;-59
2022/10/05 11:18:44;;;;;;;;;;;;;;;17.39;50.93;101947.88;5076597;28;1913;-62
2022/10/05 11:21:18;;;;;;;;;;;;;;;17.17;50.02;101947.78;5077847;28;1146;-61
2022/10/05 11:23:53;;;;;;;;;;;;;;;17.19;49.43;101948.34;5077338;28;943;-59
2022/10/05 11:26:23;;;;;;;;;;;;;;;17.55;50.29;101946.19;5055098;28;1119;-60
2022/10/05 11:28:49;;;;;;;;;;;;;;;17.24;49.69;101931.94;5039437;28;1132;-63
2022/10/05 11:31:36;;;;;;;;;;;;;;;17.20;48.53;101944.53;5057309;28;1182;-61
2022/10/05 11:34:20;;;;;;;;;;;;;;;17.06;48.49;101938.50;5057580;28;1256;-60
2022/10/05 11:37:04;;;;;;;;;;;;;;;17.57;49.66;101932.16;5064250;28;1214;-58
2022/10/05 11:39:41;;;;;;;;;;;;;;;17.22;48.89;101925.03;5077053;28;1909;-59
2022/10/05 11:42:15;;;;;;;;;;;;;;;17.83;49.37;101927.06;5077462;28;1198;-57
2022/10/05 11:44:59;;;;;;;;;;;;;;;17.75;50.11;101925.56;5076456;28;1118;-59
2022/10/05 11:47:26;;;;;;;;;;;;;;;17.32;49.54;101927.97;5076843;28;1131;-58
2022/10/05 11:49:58;;;;;;;;;;;;;;;17.10;48.75;101933.38;5051795;28;1147;-59
2022/10/05 11:52:26;;;;;;;;;;;;;;;17.04;48.25;101937.09;5057066;28;1197;-57
2022/10/05 11:55:10;;;;;;;;;;;;;;;17.93;49.03;101936.28;5056845;28;1209;-58
2022/10/05 11:57:45;;;;;;;;;;;;;;;17.20;49.46;101940.97;5056897;28;1909;-59
2022/10/05 12:00:18;;;;;;;;;;;;;;;17.16;48.49;101937.03;5060500;28;1127;-58
2022/10/05 12:02:49;;;;;;;;;;;;;;;17.73;48.81;101941.50;5076951;28;1166;-58
2022/10/05 12:05:15;;;;;;;;;;;;;;;17.47;49.35;101937.53;5072061;28;1114;-58
2022/10/05 12:07:43;;;;;;;;;;;;;;;17.19;48.79;101936.53;5073940;28;1342;-57
2022/10/05 12:10:20;;;;;;;;;;;;;;;16.99;48.13;101937.84;5067284;28;1373;-59
2022/10/05 12:13:04;;;;;;;;;;;;;;;18.37;48.29;101931.88;5058215;28;981;-58
2022/10/05 12:15:49;;;;;;;;;;;;;;;17.38;49.45;101932.44;5062789;28;1390;-59
2022/10/05 12:18:26;;;;;;;;;;;;;;;17.13;48.96;101926.53;5067015;28;1909;-58
2022/10/05 12:20:57;;;;;;;;;;;;;;;18.16;48.95;101922.53;5048383;28;1310;-61
2022/10/05 12:23:36;;;;;;;;;;;;;;;17.44;49.37;101917.69;5051972;28;1267;-59
2022/10/05 12:26:06;;;;;;;;;;;;;;;17.23;48.60;101918.47;5051172;28;1263;-59
2022/10/05 12:28:33;;;;;;;;;;;;;;;17.07;48.01;101926.44;5058924;28;1123;-59
2022/10/05 12:30:59;;;;;;;;;;;;;;;17.96;48.86;101915.69;5058637;28;984;-58
2022/10/05 12:33:24;;;;;;;;;;;;;;;17.34;49.33;101917.53;5075531;28;1132;-58
2022/10/05 12:35:55;;;;;;;;;;;;;;;17.10;48.73;101922.38;5071914;28;1322;-58
2022/10/05 12:38:33;;;;;;;;;;;;;;;17.80;48.81;101925.63;5058620;28;1972;-59
2022/10/05 12:41:04;;;;;;;;;;;;;;;17.58;49.06;101926.41;5076155;28;1142;-58
2022/10/05 12:44:05;;;;;;;;;;;;;;;17.25;48.54;101927.28;5074034;28;1130;-58
2022/10/05 12:46:31;;;;;;;;;;;;;;;17.08;48.01;101927.28;5008701;28;1333;-57
2022/10/05 12:48:59;;;;;;;;;;;;;;;17.66;48.56;101930.66;5052127;28;1273;-57
2022/10/05 12:51:27;;;;;;;;;;;;;;;17.71;49.17;101927.16;5084675;28;987;-58
2022/10/05 12:54:02;;;;;;;;;;;;;;;17.31;48.95;101934.53;5062692;28;1147;-60
2022/10/05 12:56:27;;;;;;;;;;;;;;;18.04;48.74;101941.97;5076434;28;1174;-60
2022/10/05 12:58:59;;;;;;;;;;;;;;;17.66;49.18;101941.66;5089683;28;1978;-60
2022/10/05 13:01:33;;;;;;;;;;;;;;;17.36;48.77;101936.53;5059379;28;1222;-56
2022/10/05 13:03:59;;;;;;;;;;;;;;;18.34;48.56;101946.16;5076327;28;1130;-58
2022/10/05 13:06:40;;;;;;;;;;;;;;;17.56;49.27;101947.03;5081582;28;1246;-61
2022/10/05 13:09:12;;;;;;;;;;;;;;;17.36;48.38;101944.78;5078891;28;1070;-57
2022/10/05 13:11:41;;;;;;;;;;;;;;;17.14;48.06;101951.03;5065168;28;1210;-59
2022/10/05 13:14:10;;;;;;;;;;;;;;;17.34;48.10;101946.94;5038341;28;1206;-58
2022/10/05 13:16:45;;;;;;;;;;;;;;;17.64;48.45;101937.50;5038375;28;1134;-57
2022/10/05 13:19:17;;;;;;;;;;;;;;;17.34;48.22;101938.72;5058023;28;2082;-60
2022/10/05 13:21:48;;;;;;;;;;;;;;;18.09;49.04;101929.09;5060236;28;1122;-57
2022/10/05 13:24:19;;;;;;;;;;;;;;;15.47;55.20;101943.44;5061807;28;1221;-60